sensor_id;sensor_type;location;lat;lon;timestamp;temperature;humidity
3850;DHT22;1940;51.052;13.678;2023-10-19T00:00:04;9.30;72.80
3850;DHT22;1940;51.052;13.678;2023-10-19T00:02:48;9.30;72.80
3850;DHT22;1940;51.052;13.678;2023-10-19T00:05:16;9.40;72.60
3850;DHT22;1940;51.052;13.678;2023-10-19T00:07:42;9.40;72.80
3850;DHT22;1940;51.052;13.678;2023-10-19T00:10:09;9.30;72.90
3850;DHT22;1940;51.052;13.678;2023-10-19T00:12:35;9.30;72.90
3850;DHT22;1940;51.052;13.678;2023-10-19T00:15:01;9.30;73.00
3850;DHT22;1940;51.052;13.678;2023-10-19T00:17:29;9.30;73.10
3850;DHT22;1940;51.052;13.678;2023-10-19T00:19:55;9.30;72.90
3850;DHT22;1940;51.052;13.678;2023-10-19T00:22:40;9.30;73.00
3850;DHT22;1940;51.052;13.678;2023-10-19T00:25:06;9.30;73.10
3850;DHT22;1940;51.052;13.678;2023-10-19T00:27:38;9.20;73.10
3850;DHT22;1940;51.052;13.678;2023-10-19T00:30:05;9.30;73.20
3850;DHT22;1940;51.052;13.678;2023-10-19T00:32:32;9.20;73.30
3850;DHT22;1940;51.052;13.678;2023-10-19T00:34:59;9.30;73.20
3850;DHT22;1940;51.052;13.678;2023-10-19T00:37:33;9.30;73.00
3850;DHT22;1940;51.052;13.678;2023-10-19T00:40:08;9.30;72.90
3850;DHT22;1940;51.052;13.678;2023-10-19T00:43:02;9.30;72.90
3850;DHT22;1940;51.052;13.678;2023-10-19T00:45:28;9.30;72.80
3850;DHT22;1940;51.052;13.678;2023-10-19T00:47:57;9.40;72.90
3850;DHT22;1940;51.052;13.678;2023-10-19T00:50:23;9.30;72.90
3850;DHT22;1940;51.052;13.678;2023-10-19T00:52:52;9.30;72.90
3850;DHT22;1940;51.052;13.678;2023-10-19T00:55:18;9.40;72.80
3850;DHT22;1940;51.052;13.678;2023-10-19T00:57:46;9.40;72.80
3850;DHT22;1940;51.052;13.678;2023-10-19T01:00:14;9.50;72.60
3850;DHT22;1940;51.052;13.678;2023-10-19T01:02:57;9.40;72.80
3850;DHT22;1940;51.052;13.678;2023-10-19T01:05:26;9.40;72.90
3850;DHT22;1940;51.052;13.678;2023-10-19T01:08:01;9.50;72.80
3850;DHT22;1940;51.052;13.678;2023-10-19T01:10:29;9.50;72.60
3850;DHT22;1940;51.052;13.678;2023-10-19T01:12:56;9.50;72.50
3850;DHT22;1940;51.052;13.678;2023-10-19T01:15:24;9.50;72.40
3850;DHT22;1940;51.052;13.678;2023-10-19T01:17:54;9.60;72.50
3850;DHT22;1940;51.052;13.678;2023-10-19T01:23:04;9.60;72.40
3850;DHT22;1940;51.052;13.678;2023-10-19T01:25:45;9.60;72.20
3850;DHT22;1940;51.052;13.678;2023-10-19T01:31:12;9.70;72.30
3850;DHT22;1940;51.052;13.678;2023-10-19T01:33:54;9.70;72.30
3850;DHT22;1940;51.052;13.678;2023-10-19T01:36:23;9.70;72.30
3850;DHT22;1940;51.052;13.678;2023-10-19T01:38:50;9.80;72.20
3850;DHT22;1940;51.052;13.678;2023-10-19T01:41:19;9.80;72.10
3850;DHT22;1940;51.052;13.678;2023-10-19T01:43:46;9.70;72.30
3850;DHT22;1940;51.052;13.678;2023-10-19T01:46:13;9.70;72.30
3850;DHT22;1940;51.052;13.678;2023-10-19T01:48:40;9.70;72.40
3850;DHT22;1940;51.052;13.678;2023-10-19T01:51:12;9.70;72.50
3850;DHT22;1940;51.052;13.678;2023-10-19T01:53:41;9.80;72.30
3850;DHT22;1940;51.052;13.678;2023-10-19T01:56:11;9.90;72.00
3850;DHT22;1940;51.052;13.678;2023-10-19T01:58:38;9.90;72.00
3850;DHT22;1940;51.052;13.678;2023-10-19T02:01:06;9.80;72.30
3850;DHT22;1940;51.052;13.678;2023-10-19T02:03:35;9.80;72.20
3850;DHT22;1940;51.052;13.678;2023-10-19T02:06:02;9.90;72.40
3850;DHT22;1940;51.052;13.678;2023-10-19T02:08:48;9.90;72.40
3850;DHT22;1940;51.052;13.678;2023-10-19T02:11:20;10.00;72.30
3850;DHT22;1940;51.052;13.678;2023-10-19T02:13:47;10.00;72.10
3850;DHT22;1940;51.052;13.678;2023-10-19T02:16:13;9.90;72.30
3850;DHT22;1940;51.052;13.678;2023-10-19T02:18:42;9.90;72.50
3850;DHT22;1940;51.052;13.678;2023-10-19T02:21:08;9.90;72.40
3850;DHT22;1940;51.052;13.678;2023-10-19T02:23:38;9.90;72.50
3850;DHT22;1940;51.052;13.678;2023-10-19T02:26:04;9.90;72.60
3850;DHT22;1940;51.052;13.678;2023-10-19T02:28:31;9.90;72.50
3850;DHT22;1940;51.052;13.678;2023-10-19T02:31:06;9.90;72.40
3850;DHT22;1940;51.052;13.678;2023-10-19T02:33:42;9.90;72.60
3850;DHT22;1940;51.052;13.678;2023-10-19T02:36:13;9.90;72.60
3850;DHT22;1940;51.052;13.678;2023-10-19T02:38:44;9.90;72.60
3850;DHT22;1940;51.052;13.678;2023-10-19T02:41:17;10.00;72.50
3850;DHT22;1940;51.052;13.678;2023-10-19T02:43:45;9.90;72.40
3850;DHT22;1940;51.052;13.678;2023-10-19T02:46:26;10.00;72.70
3850;DHT22;1940;51.052;13.678;2023-10-19T02:48:52;9.90;72.60
3850;DHT22;1940;51.052;13.678;2023-10-19T02:51:17;9.90;72.70
3850;DHT22;1940;51.052;13.678;2023-10-19T02:53:44;9.90;72.70
3850;DHT22;1940;51.052;13.678;2023-10-19T02:56:15;9.90;72.80
3850;DHT22;1940;51.052;13.678;2023-10-19T02:58:45;9.80;73.10
3850;DHT22;1940;51.052;13.678;2023-10-19T03:01:16;9.90;73.00
3850;DHT22;1940;51.052;13.678;2023-10-19T03:03:50;9.80;73.40
3850;DHT22;1940;51.052;13.678;2023-10-19T03:06:22;9.80;73.90
3850;DHT22;1940;51.052;13.678;2023-10-19T03:08:49;9.70;74.00
3850;DHT22;1940;51.052;13.678;2023-10-19T03:11:24;9.70;74.40
3850;DHT22;1940;51.052;13.678;2023-10-19T03:13:50;9.70;74.70
3850;DHT22;1940;51.052;13.678;2023-10-19T03:16:17;9.60;75.10
3850;DHT22;1940;51.052;13.678;2023-10-19T03:18:44;9.60;75.60
3850;DHT22;1940;51.052;13.678;2023-10-19T03:21:09;9.50;75.90
3850;DHT22;1940;51.052;13.678;2023-10-19T03:23:36;9.40;76.50
3850;DHT22;1940;51.052;13.678;2023-10-19T03:26:04;9.30;77.40
3850;DHT22;1940;51.052;13.678;2023-10-19T03:28:49;9.30;78.00
3850;DHT22;1940;51.052;13.678;2023-10-19T03:31:23;9.30;78.40
3850;DHT22;1940;51.052;13.678;2023-10-19T03:33:51;9.20;79.10
3850;DHT22;1940;51.052;13.678;2023-10-19T03:36:23;9.20;79.40
3850;DHT22;1940;51.052;13.678;2023-10-19T03:38:49;9.10;79.80
3850;DHT22;1940;51.052;13.678;2023-10-19T03:41:17;9.00;80.30
3850;DHT22;1940;51.052;13.678;2023-10-19T03:43:51;9.00;80.70
3850;DHT22;1940;51.052;13.678;2023-10-19T03:46:18;9.00;81.00
3850;DHT22;1940;51.052;13.678;2023-10-19T03:48:48;9.00;81.10
3850;DHT22;1940;51.052;13.678;2023-10-19T03:51:13;9.00;81.30
3850;DHT22;1940;51.052;13.678;2023-10-19T03:53:40;9.00;82.10
3850;DHT22;1940;51.052;13.678;2023-10-19T03:56:11;8.90;82.60
3850;DHT22;1940;51.052;13.678;2023-10-19T03:58:37;8.90;83.40
3850;DHT22;1940;51.052;13.678;2023-10-19T04:01:05;8.90;84.10
3850;DHT22;1940;51.052;13.678;2023-10-19T04:03:31;8.80;84.50
3850;DHT22;1940;51.052;13.678;2023-10-19T04:05:56;8.80;85.20
3850;DHT22;1940;51.052;13.678;2023-10-19T04:08:25;8.70;86.00
3850;DHT22;1940;51.052;13.678;2023-10-19T04:10:52;8.60;86.80
3850;DHT22;1940;51.052;13.678;2023-10-19T04:13:34;8.50;87.40
3850;DHT22;1940;51.052;13.678;2023-10-19T04:16:01;8.40;88.10
3850;DHT22;1940;51.052;13.678;2023-10-19T04:18:26;8.30;89.10
3850;DHT22;1940;51.052;13.678;2023-10-19T04:20:52;8.20;89.60
3850;DHT22;1940;51.052;13.678;2023-10-19T04:23:18;8.10;90.60
3850;DHT22;1940;51.052;13.678;2023-10-19T04:25:46;8.00;91.30
3850;DHT22;1940;51.052;13.678;2023-10-19T04:28:11;7.90;92.40
3850;DHT22;1940;51.052;13.678;2023-10-19T04:30:39;7.80;93.10
3850;DHT22;1940;51.052;13.678;2023-10-19T04:33:04;7.70;93.50
3850;DHT22;1940;51.052;13.678;2023-10-19T04:35:35;7.70;94.20
3850;DHT22;1940;51.052;13.678;2023-10-19T04:38:03;7.60;94.80
3850;DHT22;1940;51.052;13.678;2023-10-19T04:40:28;7.60;95.20
3850;DHT22;1940;51.052;13.678;2023-10-19T04:42:54;7.60;95.20
3850;DHT22;1940;51.052;13.678;2023-10-19T04:45:23;7.60;95.20
3850;DHT22;1940;51.052;13.678;2023-10-19T04:47:52;7.50;95.20
3850;DHT22;1940;51.052;13.678;2023-10-19T04:50:18;7.40;95.20
3850;DHT22;1940;51.052;13.678;2023-10-19T04:52:44;7.40;95.20
3850;DHT22;1940;51.052;13.678;2023-10-19T04:55:09;7.40;95.20
3850;DHT22;1940;51.052;13.678;2023-10-19T04:57:35;7.30;95.20
3850;DHT22;1940;51.052;13.678;2023-10-19T05:00:00;7.30;95.20
3850;DHT22;1940;51.052;13.678;2023-10-19T05:02:26;7.30;95.20
3850;DHT22;1940;51.052;13.678;2023-10-19T05:04:51;7.30;95.20
3850;DHT22;1940;51.052;13.678;2023-10-19T05:07:17;7.30;95.20
3850;DHT22;1940;51.052;13.678;2023-10-19T05:09:44;7.30;95.20
3850;DHT22;1940;51.052;13.678;2023-10-19T05:12:10;7.20;95.20
3850;DHT22;1940;51.052;13.678;2023-10-19T05:14:36;7.20;95.20
3850;DHT22;1940;51.052;13.678;2023-10-19T05:17:02;7.30;95.20
3850;DHT22;1940;51.052;13.678;2023-10-19T05:19:33;7.20;95.20
3850;DHT22;1940;51.052;13.678;2023-10-19T05:22:05;7.20;95.20
3850;DHT22;1940;51.052;13.678;2023-10-19T05:24:33;7.20;95.20
3850;DHT22;1940;51.052;13.678;2023-10-19T05:26:59;7.10;95.20
3850;DHT22;1940;51.052;13.678;2023-10-19T05:29:25;7.10;95.20
3850;DHT22;1940;51.052;13.678;2023-10-19T05:31:51;7.10;95.20
3850;DHT22;1940;51.052;13.678;2023-10-19T05:34:20;7.10;95.20
3850;DHT22;1940;51.052;13.678;2023-10-19T05:36:46;7.20;95.20
3850;DHT22;1940;51.052;13.678;2023-10-19T05:39:14;7.20;95.20
3850;DHT22;1940;51.052;13.678;2023-10-19T05:41:40;7.20;95.20
3850;DHT22;1940;51.052;13.678;2023-10-19T05:44:06;7.20;95.20
3850;DHT22;1940;51.052;13.678;2023-10-19T05:46:31;7.10;95.20
3850;DHT22;1940;51.052;13.678;2023-10-19T05:48:57;7.20;95.20
3850;DHT22;1940;51.052;13.678;2023-10-19T05:51:23;7.20;95.20
3850;DHT22;1940;51.052;13.678;2023-10-19T05:53:49;7.20;95.20
3850;DHT22;1940;51.052;13.678;2023-10-19T05:56:16;7.20;95.20
3850;DHT22;1940;51.052;13.678;2023-10-19T05:58:42;7.20;95.20
3850;DHT22;1940;51.052;13.678;2023-10-19T06:01:08;7.10;95.20
3850;DHT22;1940;51.052;13.678;2023-10-19T06:03:34;7.10;95.20
3850;DHT22;1940;51.052;13.678;2023-10-19T06:05:59;7.10;95.20
3850;DHT22;1940;51.052;13.678;2023-10-19T06:08:26;7.10;95.20
3850;DHT22;1940;51.052;13.678;2023-10-19T06:10:52;7.10;95.20
3850;DHT22;1940;51.052;13.678;2023-10-19T06:13:18;7.10;95.20
3850;DHT22;1940;51.052;13.678;2023-10-19T06:15:44;7.20;95.20
3850;DHT22;1940;51.052;13.678;2023-10-19T06:18:10;7.30;95.20
3850;DHT22;1940;51.052;13.678;2023-10-19T06:20:36;7.30;95.20
3850;DHT22;1940;51.052;13.678;2023-10-19T06:23:02;7.30;95.20
3850;DHT22;1940;51.052;13.678;2023-10-19T06:25:32;7.30;95.20
3850;DHT22;1940;51.052;13.678;2023-10-19T06:28:00;7.30;95.20
3850;DHT22;1940;51.052;13.678;2023-10-19T06:30:27;7.30;95.20
3850;DHT22;1940;51.052;13.678;2023-10-19T06:32:57;7.40;95.20
3850;DHT22;1940;51.052;13.678;2023-10-19T06:35:26;7.40;95.20
3850;DHT22;1940;51.052;13.678;2023-10-19T06:37:53;7.40;95.20
3850;DHT22;1940;51.052;13.678;2023-10-19T06:40:22;7.40;95.20
3850;DHT22;1940;51.052;13.678;2023-10-19T06:42:48;7.50;95.20
3850;DHT22;1940;51.052;13.678;2023-10-19T06:45:16;7.40;95.20
3850;DHT22;1940;51.052;13.678;2023-10-19T06:47:46;7.40;95.20
3850;DHT22;1940;51.052;13.678;2023-10-19T06:50:15;7.40;95.20
3850;DHT22;1940;51.052;13.678;2023-10-19T06:52:44;7.40;95.20
3850;DHT22;1940;51.052;13.678;2023-10-19T06:55:12;7.40;95.20
3850;DHT22;1940;51.052;13.678;2023-10-19T06:57:52;7.40;95.20
3850;DHT22;1940;51.052;13.678;2023-10-19T07:00:20;7.40;95.20
3850;DHT22;1940;51.052;13.678;2023-10-19T07:02:46;7.40;95.20
3850;DHT22;1940;51.052;13.678;2023-10-19T07:05:13;7.40;95.20
3850;DHT22;1940;51.052;13.678;2023-10-19T07:07:50;7.40;95.20
3850;DHT22;1940;51.052;13.678;2023-10-19T07:10:17;7.50;95.20
3850;DHT22;1940;51.052;13.678;2023-10-19T07:12:45;7.40;95.20
3850;DHT22;1940;51.052;13.678;2023-10-19T07:15:12;7.40;95.20
3850;DHT22;1940;51.052;13.678;2023-10-19T07:17:41;7.40;95.20
3850;DHT22;1940;51.052;13.678;2023-10-19T07:20:09;7.40;95.20
3850;DHT22;1940;51.052;13.678;2023-10-19T07:22:47;7.40;95.20
3850;DHT22;1940;51.052;13.678;2023-10-19T07:25:12;7.40;95.20
3850;DHT22;1940;51.052;13.678;2023-10-19T07:27:38;7.40;95.20
3850;DHT22;1940;51.052;13.678;2023-10-19T07:30:07;7.40;95.20
3850;DHT22;1940;51.052;13.678;2023-10-19T07:32:34;7.40;95.20
3850;DHT22;1940;51.052;13.678;2023-10-19T07:35:00;7.40;95.20
3850;DHT22;1940;51.052;13.678;2023-10-19T07:37:25;7.40;95.20
3850;DHT22;1940;51.052;13.678;2023-10-19T07:39:52;7.40;95.20
3850;DHT22;1940;51.052;13.678;2023-10-19T07:42:22;7.40;95.20
3850;DHT22;1940;51.052;13.678;2023-10-19T07:44:47;7.40;95.20
3850;DHT22;1940;51.052;13.678;2023-10-19T07:47:13;7.40;95.20
3850;DHT22;1940;51.052;13.678;2023-10-19T07:49:38;7.40;95.20
3850;DHT22;1940;51.052;13.678;2023-10-19T07:52:05;7.40;95.20
3850;DHT22;1940;51.052;13.678;2023-10-19T07:54:35;7.30;95.20
3850;DHT22;1940;51.052;13.678;2023-10-19T07:57:02;7.40;95.20
3850;DHT22;1940;51.052;13.678;2023-10-19T07:59:32;7.50;95.20
3850;DHT22;1940;51.052;13.678;2023-10-19T08:01:57;7.40;95.20
3850;DHT22;1940;51.052;13.678;2023-10-19T08:04:23;7.40;95.20
3850;DHT22;1940;51.052;13.678;2023-10-19T08:06:50;7.40;95.20
3850;DHT22;1940;51.052;13.678;2023-10-19T08:09:16;7.40;95.20
3850;DHT22;1940;51.052;13.678;2023-10-19T08:11:48;7.40;95.20
3850;DHT22;1940;51.052;13.678;2023-10-19T08:14:14;7.50;95.20
3850;DHT22;1940;51.052;13.678;2023-10-19T08:16:40;7.50;95.20
3850;DHT22;1940;51.052;13.678;2023-10-19T08:19:07;7.60;95.20
3850;DHT22;1940;51.052;13.678;2023-10-19T08:21:33;7.50;95.20
3850;DHT22;1940;51.052;13.678;2023-10-19T08:23:59;7.50;95.20
3850;DHT22;1940;51.052;13.678;2023-10-19T08:26:30;7.50;95.20
3850;DHT22;1940;51.052;13.678;2023-10-19T08:28:55;7.50;95.20
3850;DHT22;1940;51.052;13.678;2023-10-19T08:31:22;7.50;95.20
3850;DHT22;1940;51.052;13.678;2023-10-19T08:33:49;7.50;95.20
3850;DHT22;1940;51.052;13.678;2023-10-19T08:36:20;7.60;95.20
3850;DHT22;1940;51.052;13.678;2023-10-19T08:38:46;7.50;95.20
3850;DHT22;1940;51.052;13.678;2023-10-19T08:41:14;7.60;95.20
3850;DHT22;1940;51.052;13.678;2023-10-19T08:43:40;7.60;95.20
3850;DHT22;1940;51.052;13.678;2023-10-19T08:46:06;7.60;95.20
3850;DHT22;1940;51.052;13.678;2023-10-19T08:48:34;7.60;95.20
3850;DHT22;1940;51.052;13.678;2023-10-19T08:51:03;7.60;95.20
3850;DHT22;1940;51.052;13.678;2023-10-19T08:53:30;7.70;95.20
3850;DHT22;1940;51.052;13.678;2023-10-19T08:55:56;7.70;95.20
3850;DHT22;1940;51.052;13.678;2023-10-19T08:58:22;7.60;95.20
3850;DHT22;1940;51.052;13.678;2023-10-19T09:00:49;7.60;95.20
3850;DHT22;1940;51.052;13.678;2023-10-19T09:03:21;7.70;95.20
3850;DHT22;1940;51.052;13.678;2023-10-19T09:05:47;7.70;95.20
3850;DHT22;1940;51.052;13.678;2023-10-19T09:08:19;7.70;95.20
3850;DHT22;1940;51.052;13.678;2023-10-19T09:10:49;7.80;95.20
3850;DHT22;1940;51.052;13.678;2023-10-19T09:13:15;7.90;95.20
3850;DHT22;1940;51.052;13.678;2023-10-19T09:15:48;8.00;95.20
3850;DHT22;1940;51.052;13.678;2023-10-19T09:18:19;8.10;95.20
3850;DHT22;1940;51.052;13.678;2023-10-19T09:20:47;8.10;95.20
3850;DHT22;1940;51.052;13.678;2023-10-19T09:23:25;8.20;95.20
3850;DHT22;1940;51.052;13.678;2023-10-19T09:26:01;8.20;95.20
3850;DHT22;1940;51.052;13.678;2023-10-19T09:28:31;8.30;95.20
3850;DHT22;1940;51.052;13.678;2023-10-19T09:31:00;8.40;95.20
3850;DHT22;1940;51.052;13.678;2023-10-19T09:33:27;8.50;95.20
3850;DHT22;1940;51.052;13.678;2023-10-19T09:35:53;8.60;95.20
3850;DHT22;1940;51.052;13.678;2023-10-19T09:38:19;8.60;95.20
3850;DHT22;1940;51.052;13.678;2023-10-19T09:40:49;8.60;95.20
3850;DHT22;1940;51.052;13.678;2023-10-19T09:43:41;8.70;95.20
3850;DHT22;1940;51.052;13.678;2023-10-19T09:46:08;8.90;95.20
3850;DHT22;1940;51.052;13.678;2023-10-19T09:48:45;8.80;95.20
3850;DHT22;1940;51.052;13.678;2023-10-19T09:51:13;8.90;95.20
3850;DHT22;1940;51.052;13.678;2023-10-19T09:53:40;8.80;95.20
3850;DHT22;1940;51.052;13.678;2023-10-19T09:56:10;8.90;95.20
3850;DHT22;1940;51.052;13.678;2023-10-19T09:58:44;9.00;95.20
3850;DHT22;1940;51.052;13.678;2023-10-19T10:01:10;9.00;95.20
3850;DHT22;1940;51.052;13.678;2023-10-19T10:03:42;9.00;95.20
3850;DHT22;1940;51.052;13.678;2023-10-19T10:06:09;9.00;95.20
3850;DHT22;1940;51.052;13.678;2023-10-19T10:08:38;9.00;95.20
3850;DHT22;1940;51.052;13.678;2023-10-19T10:11:20;9.00;95.20
3850;DHT22;1940;51.052;13.678;2023-10-19T10:13:47;9.00;95.20
3850;DHT22;1940;51.052;13.678;2023-10-19T10:16:24;8.90;95.20
3850;DHT22;1940;51.052;13.678;2023-10-19T10:18:53;9.00;95.20
3850;DHT22;1940;51.052;13.678;2023-10-19T10:21:20;9.00;95.20
3850;DHT22;1940;51.052;13.678;2023-10-19T10:23:57;9.00;95.20
3850;DHT22;1940;51.052;13.678;2023-10-19T10:26:28;9.10;95.20
3850;DHT22;1940;51.052;13.678;2023-10-19T10:29:13;9.20;95.20
3850;DHT22;1940;51.052;13.678;2023-10-19T10:31:44;9.30;95.20
3850;DHT22;1940;51.052;13.678;2023-10-19T10:34:10;9.30;95.20
3850;DHT22;1940;51.052;13.678;2023-10-19T10:36:58;9.30;95.20
3850;DHT22;1940;51.052;13.678;2023-10-19T10:39:28;9.40;95.20
3850;DHT22;1940;51.052;13.678;2023-10-19T10:42:02;9.30;95.10
3850;DHT22;1940;51.052;13.678;2023-10-19T10:44:47;9.30;95.20
3850;DHT22;1940;51.052;13.678;2023-10-19T10:47:17;9.50;95.20
3850;DHT22;1940;51.052;13.678;2023-10-19T10:55:26;9.70;95.20
3850;DHT22;1940;51.052;13.678;2023-10-19T10:57:52;9.70;94.60
3850;DHT22;1940;51.052;13.678;2023-10-19T11:00:19;9.80;94.70
3850;DHT22;1940;51.052;13.678;2023-10-19T11:02:47;9.90;94.90
3850;DHT22;1940;51.052;13.678;2023-10-19T11:05:16;10.00;94.30
3850;DHT22;1940;51.052;13.678;2023-10-19T11:08:03;10.10;94.10
3850;DHT22;1940;51.052;13.678;2023-10-19T11:10:30;10.30;93.90
3850;DHT22;1940;51.052;13.678;2023-10-19T11:13:03;10.50;94.10
3850;DHT22;1940;51.052;13.678;2023-10-19T11:15:29;10.50;92.80
3850;DHT22;1940;51.052;13.678;2023-10-19T11:17:54;10.60;92.40
3850;DHT22;1940;51.052;13.678;2023-10-19T11:20:22;10.60;92.50
3850;DHT22;1940;51.052;13.678;2023-10-19T11:22:49;10.50;91.90
3850;DHT22;1940;51.052;13.678;2023-10-19T11:25:20;10.50;92.30
3850;DHT22;1940;51.052;13.678;2023-10-19T11:27:46;10.50;92.30
3850;DHT22;1940;51.052;13.678;2023-10-19T11:30:13;10.40;91.90
3850;DHT22;1940;51.052;13.678;2023-10-19T11:32:39;10.40;92.20
3850;DHT22;1940;51.052;13.678;2023-10-19T11:35:05;10.30;91.80
3850;DHT22;1940;51.052;13.678;2023-10-19T11:37:51;10.30;92.20
3850;DHT22;1940;51.052;13.678;2023-10-19T11:40:19;10.20;92.10
3850;DHT22;1940;51.052;13.678;2023-10-19T11:42:45;10.20;92.50
3850;DHT22;1940;51.052;13.678;2023-10-19T11:45:10;10.20;92.50
3850;DHT22;1940;51.052;13.678;2023-10-19T11:47:37;10.30;92.60
3850;DHT22;1940;51.052;13.678;2023-10-19T11:50:03;10.40;92.60
3850;DHT22;1940;51.052;13.678;2023-10-19T11:52:29;10.50;91.60
3850;DHT22;1940;51.052;13.678;2023-10-19T11:54:55;10.50;91.40
3850;DHT22;1940;51.052;13.678;2023-10-19T11:57:21;10.50;91.20
3850;DHT22;1940;51.052;13.678;2023-10-19T11:59:47;10.50;91.20
3850;DHT22;1940;51.052;13.678;2023-10-19T12:02:18;10.60;91.40
3850;DHT22;1940;51.052;13.678;2023-10-19T12:04:44;10.60;91.20
3850;DHT22;1940;51.052;13.678;2023-10-19T12:07:10;10.50;91.30
3850;DHT22;1940;51.052;13.678;2023-10-19T12:09:36;10.50;91.30
3850;DHT22;1940;51.052;13.678;2023-10-19T12:12:02;10.50;91.30
3850;DHT22;1940;51.052;13.678;2023-10-19T12:14:31;10.50;91.40
3850;DHT22;1940;51.052;13.678;2023-10-19T12:16:59;10.50;91.10
3850;DHT22;1940;51.052;13.678;2023-10-19T12:19:27;10.40;91.20
3850;DHT22;1940;51.052;13.678;2023-10-19T12:21:55;10.40;91.50
3850;DHT22;1940;51.052;13.678;2023-10-19T12:24:20;10.40;91.70
3850;DHT22;1940;51.052;13.678;2023-10-19T12:26:46;10.30;91.50
3850;DHT22;1940;51.052;13.678;2023-10-19T12:29:12;10.30;91.70
3850;DHT22;1940;51.052;13.678;2023-10-19T12:31:40;10.50;91.60
3850;DHT22;1940;51.052;13.678;2023-10-19T12:34:08;10.50;91.30
3850;DHT22;1940;51.052;13.678;2023-10-19T12:36:37;10.50;91.60
3850;DHT22;1940;51.052;13.678;2023-10-19T12:39:03;10.50;91.40
3850;DHT22;1940;51.052;13.678;2023-10-19T12:41:32;10.60;91.40
3850;DHT22;1940;51.052;13.678;2023-10-19T12:43:58;10.50;91.30
3850;DHT22;1940;51.052;13.678;2023-10-19T12:46:26;10.50;91.40
3850;DHT22;1940;51.052;13.678;2023-10-19T12:48:55;10.40;91.30
3850;DHT22;1940;51.052;13.678;2023-10-19T12:51:21;10.30;91.70
3850;DHT22;1940;51.052;13.678;2023-10-19T12:53:54;10.40;92.10
3850;DHT22;1940;51.052;13.678;2023-10-19T12:56:20;10.30;92.10
3850;DHT22;1940;51.052;13.678;2023-10-19T12:58:46;10.30;92.10
3850;DHT22;1940;51.052;13.678;2023-10-19T13:01:14;10.30;92.10
3850;DHT22;1940;51.052;13.678;2023-10-19T13:03:45;10.30;92.20
3850;DHT22;1940;51.052;13.678;2023-10-19T13:06:14;10.40;92.30
3850;DHT22;1940;51.052;13.678;2023-10-19T13:08:40;10.40;92.10
3850;DHT22;1940;51.052;13.678;2023-10-19T13:11:08;10.50;91.90
3850;DHT22;1940;51.052;13.678;2023-10-19T13:13:35;10.50;91.80
3850;DHT22;1940;51.052;13.678;2023-10-19T13:16:05;10.60;91.90
3850;DHT22;1940;51.052;13.678;2023-10-19T13:18:36;10.70;91.40
3850;DHT22;1940;51.052;13.678;2023-10-19T13:21:05;10.90;91.60
3850;DHT22;1940;51.052;13.678;2023-10-19T13:23:33;11.20;91.00
3850;DHT22;1940;51.052;13.678;2023-10-19T13:25:59;11.50;90.80
3850;DHT22;1940;51.052;13.678;2023-10-19T13:28:40;11.70;89.90
3850;DHT22;1940;51.052;13.678;2023-10-19T13:31:05;11.80;89.20
3850;DHT22;1940;51.052;13.678;2023-10-19T13:33:35;11.90;88.90
3850;DHT22;1940;51.052;13.678;2023-10-19T13:36:01;12.00;88.80
3850;DHT22;1940;51.052;13.678;2023-10-19T13:38:28;12.00;88.30
3850;DHT22;1940;51.052;13.678;2023-10-19T13:40:54;12.10;87.80
3850;DHT22;1940;51.052;13.678;2023-10-19T13:43:19;12.00;87.40
3850;DHT22;1940;51.052;13.678;2023-10-19T13:45:47;11.90;87.80
3850;DHT22;1940;51.052;13.678;2023-10-19T13:48:13;11.80;88.00
3850;DHT22;1940;51.052;13.678;2023-10-19T13:50:46;11.70;87.90
3850;DHT22;1940;51.052;13.678;2023-10-19T13:53:14;11.70;88.70
3850;DHT22;1940;51.052;13.678;2023-10-19T13:55:40;11.80;88.40
3850;DHT22;1940;51.052;13.678;2023-10-19T13:58:06;11.70;88.80
3850;DHT22;1940;51.052;13.678;2023-10-19T14:00:32;11.70;89.00
3850;DHT22;1940;51.052;13.678;2023-10-19T14:03:06;11.70;88.90
3850;DHT22;1940;51.052;13.678;2023-10-19T14:05:43;11.50;88.80
3850;DHT22;1940;51.052;13.678;2023-10-19T14:08:13;11.50;89.40
3850;DHT22;1940;51.052;13.678;2023-10-19T14:10:39;11.40;89.80
3850;DHT22;1940;51.052;13.678;2023-10-19T14:13:10;11.40;90.00
3850;DHT22;1940;51.052;13.678;2023-10-19T14:15:37;11.30;90.30
3850;DHT22;1940;51.052;13.678;2023-10-19T14:18:03;11.30;90.50
3850;DHT22;1940;51.052;13.678;2023-10-19T14:20:30;11.40;90.40
3850;DHT22;1940;51.052;13.678;2023-10-19T14:22:56;11.40;90.10
3850;DHT22;1940;51.052;13.678;2023-10-19T14:25:22;11.50;90.40
3850;DHT22;1940;51.052;13.678;2023-10-19T14:27:50;11.50;89.70
3850;DHT22;1940;51.052;13.678;2023-10-19T14:30:18;11.60;89.40
3850;DHT22;1940;51.052;13.678;2023-10-19T14:32:47;11.40;89.30
3850;DHT22;1940;51.052;13.678;2023-10-19T14:35:13;11.30;89.80
3850;DHT22;1940;51.052;13.678;2023-10-19T14:37:41;11.30;90.00
3850;DHT22;1940;51.052;13.678;2023-10-19T14:40:09;11.30;90.20
3850;DHT22;1940;51.052;13.678;2023-10-19T14:42:39;11.30;90.00
3850;DHT22;1940;51.052;13.678;2023-10-19T14:45:28;11.40;90.30
3850;DHT22;1940;51.052;13.678;2023-10-19T14:47:58;11.50;89.80
3850;DHT22;1940;51.052;13.678;2023-10-19T14:50:25;11.40;89.70
3850;DHT22;1940;51.052;13.678;2023-10-19T14:52:53;11.30;90.00
3850;DHT22;1940;51.052;13.678;2023-10-19T14:55:19;11.20;90.30
3850;DHT22;1940;51.052;13.678;2023-10-19T14:57:47;11.20;90.50
3850;DHT22;1940;51.052;13.678;2023-10-19T15:00:18;11.20;90.60
3850;DHT22;1940;51.052;13.678;2023-10-19T15:02:49;11.10;90.60
3850;DHT22;1940;51.052;13.678;2023-10-19T15:05:16;11.20;90.80
3850;DHT22;1940;51.052;13.678;2023-10-19T15:07:49;11.20;90.40
3850;DHT22;1940;51.052;13.678;2023-10-19T15:10:21;11.00;90.80
3850;DHT22;1940;51.052;13.678;2023-10-19T15:12:47;11.00;91.30
3850;DHT22;1940;51.052;13.678;2023-10-19T15:15:13;11.00;91.10
3850;DHT22;1940;51.052;13.678;2023-10-19T15:17:43;11.00;91.50
3850;DHT22;1940;51.052;13.678;2023-10-19T15:20:11;11.00;91.50
3850;DHT22;1940;51.052;13.678;2023-10-19T15:22:39;11.00;91.40
3850;DHT22;1940;51.052;13.678;2023-10-19T15:25:05;10.90;91.70
3850;DHT22;1940;51.052;13.678;2023-10-19T15:27:37;11.00;91.70
3850;DHT22;1940;51.052;13.678;2023-10-19T15:30:04;11.00;91.30
3850;DHT22;1940;51.052;13.678;2023-10-19T15:32:34;11.00;91.50
3850;DHT22;1940;51.052;13.678;2023-10-19T15:35:01;11.00;91.20
3850;DHT22;1940;51.052;13.678;2023-10-19T15:37:26;10.90;91.20
3850;DHT22;1940;51.052;13.678;2023-10-19T15:39:52;10.80;91.60
3850;DHT22;1940;51.052;13.678;2023-10-19T15:42:18;10.80;91.70
3850;DHT22;1940;51.052;13.678;2023-10-19T15:44:48;10.80;91.70
3850;DHT22;1940;51.052;13.678;2023-10-19T15:47:15;10.70;91.90
3850;DHT22;1940;51.052;13.678;2023-10-19T15:49:48;10.70;91.90
3850;DHT22;1940;51.052;13.678;2023-10-19T15:52:17;10.70;92.00
3850;DHT22;1940;51.052;13.678;2023-10-19T15:54:43;10.60;92.00
3850;DHT22;1940;51.052;13.678;2023-10-19T15:57:09;10.70;92.30
3850;DHT22;1940;51.052;13.678;2023-10-19T15:59:35;10.70;92.40
3850;DHT22;1940;51.052;13.678;2023-10-19T16:02:00;10.70;92.30
3850;DHT22;1940;51.052;13.678;2023-10-19T16:04:26;10.70;92.20
3850;DHT22;1940;51.052;13.678;2023-10-19T16:06:52;10.70;92.10
3850;DHT22;1940;51.052;13.678;2023-10-19T16:09:17;10.60;92.00
3850;DHT22;1940;51.052;13.678;2023-10-19T16:11:44;10.60;92.10
3850;DHT22;1940;51.052;13.678;2023-10-19T16:14:11;10.60;92.20
3850;DHT22;1940;51.052;13.678;2023-10-19T16:16:37;10.50;92.40